createdAt,value
2018-02-22T00:08:53.960Z,24.50
2018-02-22T00:17:17.085Z,24.60
2018-02-22T00:19:45.239Z,24.60
2018-02-22T00:22:18.972Z,25.10
2018-02-22T00:24:47.211Z,24.60
2018-02-22T00:27:16.187Z,24.60
2018-02-22T00:29:44.329Z,24.60
2018-02-22T00:32:12.611Z,25.10
2018-02-22T00:34:40.763Z,24.50
2018-02-22T00:37:08.993Z,24.50
2018-02-22T00:39:37.901Z,25.10
2018-02-22T00:42:06.826Z,24.50
2018-02-22T00:44:34.995Z,24.50
2018-02-22T00:47:03.154Z,24.50
2018-02-22T00:49:31.302Z,24.50
2018-02-22T00:52:00.320Z,24.50
2018-02-22T00:54:28.503Z,24.50
2018-02-22T00:56:56.643Z,24.60
2018-02-22T00:59:25.658Z,24.60
2018-02-22T01:01:54.660Z,24.60
2018-02-22T01:04:22.864Z,24.60
2018-02-22T01:06:51.034Z,24.60
2018-02-22T01:09:19.995Z,24.60
2018-02-22T01:11:48.159Z,24.50
2018-02-22T01:14:16.316Z,24.50
2018-02-22T01:16:44.482Z,24.60
2018-02-22T01:19:12.674Z,24.60
2018-02-22T01:21:40.827Z,24.60
2018-02-22T01:24:09.859Z,24.60
2018-02-22T01:26:38.019Z,24.60
2018-02-22T01:29:06.207Z,24.60
2018-02-22T01:31:34.449Z,24.60
2018-02-22T01:34:02.712Z,24.60
2018-02-22T01:36:31.945Z,24.60
2018-02-22T01:39:00.109Z,24.60
2018-02-22T01:41:28.406Z,24.60
2018-02-22T01:43:56.565Z,24.60
2018-02-22T01:46:24.742Z,24.60
2018-02-22T01:48:52.950Z,24.60
2018-02-22T01:51:21.122Z,24.70
2018-02-22T01:53:49.325Z,24.60
2018-02-22T01:56:18.264Z,24.70
2018-02-22T01:58:46.418Z,24.60
2018-02-22T02:01:14.571Z,24.60
2018-02-22T02:03:42.755Z,24.70
2018-02-22T02:06:11.077Z,24.70
2018-02-22T02:08:39.284Z,24.70
2018-02-22T02:11:08.327Z,24.70
2018-02-22T02:13:36.531Z,24.60
2018-02-22T02:16:04.666Z,24.70
2018-02-22T02:18:32.830Z,24.70
2018-02-22T02:21:00.984Z,24.60
2018-02-22T02:23:29.130Z,24.70
2018-02-22T02:25:58.043Z,24.70
2018-02-22T02:28:34.040Z,24.60
2018-02-22T02:31:02.231Z,24.70
2018-02-22T02:33:30.403Z,24.70
2018-02-22T02:35:58.560Z,24.70
2018-02-22T02:38:26.781Z,24.80
2018-02-22T02:40:55.702Z,24.80
2018-02-22T02:43:23.864Z,24.80
2018-02-22T02:45:52.036Z,24.90
2018-02-22T02:48:20.197Z,24.80
2018-02-22T02:50:48.349Z,24.80
2018-02-22T02:53:17.295Z,25.20
2018-02-22T02:55:45.449Z,24.70
2018-02-22T02:58:13.593Z,24.80
2018-02-22T03:00:42.532Z,24.80
2018-02-22T03:03:10.669Z,24.80
2018-02-22T03:05:39.581Z,24.90
2018-02-22T03:08:07.771Z,24.80
2018-02-22T03:10:35.900Z,24.80
2018-02-22T03:13:04.825Z,24.80
2018-02-22T03:15:33.014Z,24.80
2018-02-22T03:18:01.157Z,24.80
2018-02-22T03:20:29.308Z,24.90
2018-02-22T03:22:57.464Z,24.90
2018-02-22T03:25:26.454Z,25.00
2018-02-22T03:27:55.386Z,25.40
2018-02-22T03:30:23.602Z,25.00
2018-02-22T03:32:51.746Z,25.50
2018-02-22T03:35:19.947Z,25.10
2018-02-22T03:37:48.146Z,25.10
2018-02-22T03:40:17.067Z,25.10
2018-02-22T03:42:45.275Z,25.10
2018-02-22T03:45:13.425Z,25.00
2018-02-22T03:47:41.573Z,25.10
2018-02-22T03:50:09.715Z,25.10
2018-02-22T03:52:37.888Z,25.00
2018-02-22T03:55:06.818Z,25.00
2018-02-22T03:57:34.977Z,25.00
2018-02-22T04:00:03.905Z,25.00
2018-02-22T04:02:32.066Z,25.00
2018-02-22T04:05:00.256Z,25.00
2018-02-22T04:07:28.469Z,25.00
2018-02-22T04:09:57.373Z,25.10
2018-02-22T04:12:26.324Z,25.10
2018-02-22T04:14:54.465Z,25.10
2018-02-22T04:17:22.639Z,25.10
2018-02-22T04:19:50.790Z,25.60
2018-02-22T04:22:19.029Z,25.20
2018-02-22T04:24:47.178Z,25.20
2018-02-22T04:27:15.319Z,25.10
2018-02-22T04:29:43.494Z,25.20
2018-02-22T04:32:11.788Z,25.20
2018-02-22T04:34:39.955Z,25.20
2018-02-22T04:37:08.112Z,25.20
2018-02-22T04:39:36.300Z,25.30
2018-02-22T04:42:04.437Z,25.30
2018-02-22T04:44:33.378Z,25.30
2018-02-22T04:47:01.535Z,25.30
2018-02-22T04:49:29.700Z,25.30
2018-02-22T04:51:57.880Z,25.30
2018-02-22T04:54:26.028Z,25.40
2018-02-22T04:56:54.189Z,25.40
2018-02-22T04:59:22.560Z,25.50
2018-02-22T05:01:51.560Z,25.70
2018-02-22T05:04:20.482Z,25.60
2018-02-22T05:06:48.708Z,26.10
2018-02-22T05:09:16.914Z,25.60
2018-02-22T05:11:45.075Z,25.60
2018-02-22T05:14:14.045Z,25.50
2018-02-22T05:16:42.159Z,25.50
2018-02-22T05:19:10.338Z,25.40
2018-02-22T05:21:38.480Z,25.20
2018-02-22T05:24:07.451Z,25.20
2018-02-22T05:26:35.610Z,25.20
2018-02-22T05:29:03.767Z,25.30
2018-02-22T05:31:32.074Z,25.00
2018-02-22T05:34:00.238Z,24.90
2018-02-22T05:36:28.450Z,24.90
2018-02-22T05:38:56.615Z,25.00
2018-02-22T05:41:25.635Z,25.00
2018-02-22T05:43:54.558Z,24.90
2018-02-22T05:46:22.762Z,24.90
2018-02-22T05:48:51.696Z,25.00
2018-02-22T05:51:19.840Z,24.90
2018-02-22T05:53:48.807Z,25.00
2018-02-22T05:56:17.062Z,25.00
2018-02-22T05:58:45.297Z,25.00
2018-02-22T06:01:13.519Z,25.10
2018-02-22T06:03:41.710Z,25.20
2018-02-22T06:06:10.674Z,25.20
2018-02-22T06:08:38.841Z,25.20
2018-02-22T06:11:06.985Z,25.20
2018-02-22T06:13:35.191Z,25.30
2018-02-22T06:16:03.326Z,25.30
2018-02-22T06:18:32.494Z,25.40
2018-02-22T06:21:01.454Z,25.30
2018-02-22T06:23:29.645Z,25.30
2018-02-22T06:25:57.829Z,25.30
2018-02-22T06:28:26.047Z,25.20
2018-02-22T06:30:54.188Z,25.20
2018-02-22T06:33:23.085Z,25.20
2018-02-22T06:35:51.234Z,25.20
2018-02-22T06:38:20.198Z,25.10
2018-02-22T06:40:48.357Z,25.10
2018-02-22T06:43:16.534Z,25.00
2018-02-22T06:45:44.742Z,25.00
2018-02-22T06:48:12.965Z,25.00
2018-02-22T06:50:41.120Z,25.50
2018-02-22T06:53:09.307Z,25.00
2018-02-22T06:55:38.291Z,25.10
2018-02-22T06:58:06.467Z,25.00
2018-02-22T07:00:34.730Z,25.00
2018-02-22T07:03:02.892Z,25.00
2018-02-22T07:05:31.040Z,25.10
2018-02-22T07:07:59.292Z,25.10
2018-02-22T07:10:27.911Z,25.10
2018-02-22T07:12:56.844Z,25.10
2018-02-22T07:15:25.200Z,25.10
2018-02-22T07:17:58.800Z,25.10
2018-02-22T07:20:27.062Z,25.10
2018-02-22T07:22:56.149Z,25.20
2018-02-22T07:25:24.481Z,25.20
2018-02-22T07:27:52.662Z,25.20
2018-02-22T07:30:21.672Z,25.30
2018-02-22T07:32:49.834Z,25.30
2018-02-22T07:35:18.039Z,25.30
2018-02-22T07:37:47.006Z,25.50
2018-02-22T07:40:15.156Z,25.40
2018-02-22T07:42:43.396Z,25.50
2018-02-22T07:45:11.711Z,25.50
2018-02-22T07:47:39.872Z,25.60
2018-02-22T07:50:08.043Z,25.50
2018-02-22T07:52:36.206Z,25.50
2018-02-22T07:55:04.401Z,25.40
2018-02-22T07:57:32.568Z,25.40
2018-02-22T08:00:01.547Z,25.30
2018-02-22T08:02:29.650Z,25.30
2018-02-22T08:04:57.805Z,25.30
2018-02-22T08:07:26.172Z,25.30
2018-02-22T08:09:54.319Z,25.30
2018-02-22T08:12:22.475Z,25.30
2018-02-22T08:14:51.441Z,25.30
2018-02-22T08:17:19.673Z,25.20
2018-02-22T08:19:47.910Z,25.20
2018-02-22T08:22:16.920Z,25.30
2018-02-22T08:24:45.103Z,25.30
2018-02-22T08:27:13.253Z,25.30
2018-02-22T08:29:42.166Z,25.30
2018-02-22T08:32:10.440Z,25.30
2018-02-22T08:34:38.592Z,25.30
2018-02-22T08:37:07.562Z,25.40
2018-02-22T08:39:36.772Z,25.40
2018-02-22T08:42:06.239Z,25.50
2018-02-22T08:44:41.044Z,25.40
2018-02-22T08:47:11.145Z,25.50
2018-02-22T08:49:39.722Z,25.50
2018-02-22T08:52:07.966Z,25.50
2018-02-22T08:54:36.144Z,25.60
2018-02-22T08:57:04.297Z,25.70
2018-02-22T08:59:33.216Z,25.70
2018-02-22T09:02:02.136Z,25.70
2018-02-22T09:04:30.286Z,25.60
2018-02-22T09:06:59.220Z,25.60
2018-02-22T09:09:27.375Z,25.60
2018-02-22T09:11:55.629Z,25.60
2018-02-22T09:14:24.626Z,25.60
2018-02-22T09:16:53.572Z,25.70
2018-02-22T09:19:21.760Z,25.60
2018-02-22T09:21:49.897Z,25.60
2018-02-22T09:24:18.075Z,25.60
2018-02-22T09:26:46.255Z,25.60
2018-02-22T09:29:14.446Z,25.60
2018-02-22T09:31:42.690Z,25.70
2018-02-22T09:34:10.828Z,25.70
2018-02-22T09:36:39.782Z,25.70
2018-02-22T09:39:07.922Z,25.70
2018-02-22T09:41:36.067Z,25.70
2018-02-22T09:44:04.239Z,25.70
2018-02-22T09:46:35.028Z,25.80
2018-02-22T09:49:03.295Z,25.80
2018-02-22T09:51:31.455Z,25.80
2018-02-22T09:54:02.834Z,25.80
2018-02-22T09:56:32.627Z,25.80
2018-02-22T09:59:04.077Z,25.80
2018-02-22T10:01:33.454Z,25.90
2018-02-22T10:04:01.660Z,25.90
2018-02-22T10:06:29.823Z,25.90
2018-02-22T10:08:58.769Z,25.90
2018-02-22T10:11:27.050Z,26.00
2018-02-22T10:13:55.291Z,26.00
2018-02-22T10:16:23.560Z,26.00
2018-02-22T10:18:53.900Z,26.00
2018-02-22T10:21:22.130Z,26.00
2018-02-22T10:23:51.747Z,26.00
2018-02-22T10:26:21.705Z,26.00
2018-02-22T10:28:50.790Z,26.00
2018-02-22T10:31:19.166Z,26.10
2018-02-22T10:33:49.210Z,26.00
2018-02-22T10:36:18.462Z,26.00
2018-02-22T10:38:47.530Z,26.10
2018-02-22T10:41:17.359Z,26.10
2018-02-22T10:43:45.580Z,26.10
2018-02-22T10:46:14.671Z,26.10
2018-02-22T10:48:43.705Z,26.10
2018-02-22T10:51:11.939Z,26.10
2018-02-22T10:53:41.799Z,26.10
2018-02-22T10:56:11.158Z,26.10
2018-02-22T10:58:39.340Z,26.10
2018-02-22T11:01:13.303Z,26.10
2018-02-22T11:03:41.611Z,26.10
2018-02-22T11:06:09.922Z,26.10
2018-02-22T11:08:38.082Z,26.10
2018-02-22T11:11:06.333Z,26.10
2018-02-22T11:13:35.237Z,26.10
2018-02-22T11:16:04.462Z,26.10
2018-02-22T11:18:33.873Z,26.10
2018-02-22T11:21:02.092Z,26.00
2018-02-22T11:23:31.070Z,25.90
2018-02-22T11:26:00.086Z,26.40
2018-02-22T11:28:28.306Z,25.80
2018-02-22T11:30:56.505Z,25.80
2018-02-22T11:33:24.836Z,25.80
2018-02-22T11:35:57.170Z,25.70
2018-02-22T11:38:26.903Z,25.70
2018-02-22T11:40:55.933Z,25.60
2018-02-22T11:43:24.136Z,25.60
2018-02-22T11:45:55.152Z,25.70
2018-02-22T11:48:27.262Z,25.70
2018-02-22T11:50:56.210Z,25.70
2018-02-22T11:58:12.340Z,25.80
2018-02-22T12:00:41.739Z,25.80
2018-02-22T12:03:12.485Z,25.80
2018-02-22T12:08:35.951Z,25.80
2018-02-22T12:11:04.299Z,25.70
2018-02-22T12:13:33.749Z,25.60
2018-02-22T12:16:03.037Z,25.60
2018-02-22T12:18:32.346Z,25.60
2018-02-22T12:21:00.573Z,25.60
2018-02-22T12:23:29.816Z,25.50
2018-02-22T12:25:58.810Z,25.50
2018-02-22T12:28:30.073Z,25.50
2018-02-22T12:30:59.228Z,25.40
2018-02-22T12:33:27.575Z,25.40
2018-02-22T12:35:56.854Z,25.30
2018-02-22T12:38:27.430Z,25.30
2018-02-22T12:40:56.335Z,25.30
2018-02-22T12:43:24.517Z,25.30
2018-02-22T12:45:53.826Z,25.30
2018-02-22T12:48:22.774Z,25.30
2018-02-22T12:50:50.934Z,25.30
2018-02-22T12:53:20.161Z,25.40
2018-02-22T12:55:48.411Z,25.40
2018-02-22T12:58:17.369Z,25.40
2018-02-22T13:00:45.551Z,25.30
2018-02-22T13:03:13.707Z,25.40
2018-02-22T13:05:43.165Z,25.40
2018-02-22T13:08:11.333Z,25.50
2018-02-22T13:10:39.560Z,25.50
2018-02-22T13:13:07.718Z,25.50
2018-02-22T13:15:35.863Z,25.40
2018-02-22T13:18:04.675Z,25.40
2018-02-22T13:20:32.871Z,25.40
2018-02-22T13:23:01.129Z,25.40
2018-02-22T13:25:29.277Z,25.40
2018-02-22T13:27:57.582Z,25.40
2018-02-22T13:30:25.722Z,25.40
2018-02-22T13:33:11.635Z,25.40
2018-02-22T13:35:40.651Z,25.30
2018-02-22T13:41:16.918Z,25.20
2018-02-22T13:43:47.959Z,25.40
2018-02-22T13:46:16.912Z,25.30
2018-02-22T13:49:02.822Z,25.30
2018-02-22T13:51:31.772Z,25.50
2018-02-22T13:54:00.750Z,25.30
2018-02-22T13:56:46.758Z,25.30
2018-02-22T13:59:15.029Z,25.30
2018-02-22T14:02:00.902Z,25.30
2018-02-22T14:04:29.121Z,25.20
2018-02-22T14:06:57.329Z,25.30
2018-02-22T14:09:25.522Z,25.20
2018-02-22T14:11:53.756Z,25.10
2018-02-22T14:14:21.933Z,25.10
2018-02-22T14:16:50.126Z,25.20
2018-02-22T14:19:18.361Z,25.10
2018-02-22T14:21:46.548Z,25.20
2018-02-22T14:24:17.202Z,25.20
2018-02-22T14:26:45.399Z,25.20
2018-02-22T14:29:13.607Z,25.10
2018-02-22T14:31:41.813Z,25.10
2018-02-22T14:34:10.005Z,25.10
2018-02-22T14:36:39.349Z,25.10
2018-02-22T14:39:07.524Z,25.10
2018-02-22T14:41:35.782Z,25.10
2018-02-22T14:44:03.968Z,25.10
2018-02-22T14:46:32.271Z,25.10
2018-02-22T14:49:01.510Z,25.20
2018-02-22T14:51:29.706Z,25.10
2018-02-22T14:53:57.908Z,25.20
2018-02-22T14:56:26.146Z,25.10
2018-02-22T14:58:54.399Z,25.10
2018-02-22T15:01:22.599Z,25.10
2018-02-22T15:03:51.044Z,25.10
2018-02-22T15:06:19.306Z,25.00
2018-02-22T15:08:48.244Z,25.00
2018-02-22T15:11:16.442Z,25.00
2018-02-22T15:13:44.619Z,25.00
2018-02-22T15:16:12.900Z,25.00
2018-02-22T15:18:41.093Z,25.30
2018-02-22T15:21:10.073Z,24.80
2018-02-22T15:23:38.261Z,24.80
2018-02-22T15:26:07.196Z,24.90
2018-02-22T15:28:35.510Z,24.80
2018-02-22T15:31:04.438Z,24.90
2018-02-22T15:33:32.621Z,24.90
2018-02-22T15:36:00.928Z,24.90
2018-02-22T15:38:29.141Z,24.80
2018-02-22T15:40:58.179Z,24.80
2018-02-22T15:43:26.361Z,24.80
2018-02-22T15:45:54.550Z,24.80
2018-02-22T15:48:22.835Z,24.80
2018-02-22T15:50:50.999Z,24.80
2018-02-22T15:53:19.253Z,24.90
2018-02-22T15:55:47.407Z,24.80
2018-02-22T15:58:15.584Z,24.80
2018-02-22T16:00:43.838Z,24.80
2018-02-22T16:03:12.036Z,24.80
2018-02-22T16:05:40.352Z,24.80
2018-02-22T16:08:08.568Z,24.80
2018-02-22T16:10:36.822Z,24.90
2018-02-22T16:13:05.814Z,24.90
2018-02-22T16:15:34.835Z,24.90
2018-02-22T16:18:03.114Z,24.90
2018-02-22T16:20:31.323Z,24.90
2018-02-22T16:23:00.192Z,24.90
2018-02-22T16:25:36.790Z,24.90
2018-02-22T16:28:05.997Z,24.90
2018-02-22T16:30:34.391Z,25.00
2018-02-22T16:33:08.308Z,25.00
2018-02-22T16:35:36.730Z,25.00
2018-02-22T16:38:05.249Z,25.00
2018-02-22T16:40:38.670Z,25.10
2018-02-22T16:43:07.316Z,25.00
2018-02-22T16:45:35.704Z,25.00
2018-02-22T16:48:14.009Z,25.00
2018-02-22T16:50:42.278Z,25.00
2018-02-22T16:53:10.466Z,25.00
2018-02-22T16:55:39.405Z,25.10
2018-02-22T16:58:07.622Z,25.00
2018-02-22T17:00:42.133Z,25.00
2018-02-22T17:03:10.464Z,25.50
2018-02-22T17:05:38.626Z,25.10
2018-02-22T17:08:07.052Z,25.60
2018-02-22T17:10:35.261Z,25.10
2018-02-22T17:13:04.185Z,25.20
2018-02-22T17:15:32.505Z,25.10
2018-02-22T17:18:07.301Z,25.10
2018-02-22T17:20:36.522Z,25.10
2018-02-22T17:23:05.474Z,25.10
2018-02-22T17:25:33.087Z,25.20
2018-02-22T17:28:06.688Z,25.20
2018-02-22T17:30:40.488Z,25.20
2018-02-22T17:33:08.658Z,25.60
2018-02-22T17:35:42.304Z,25.20
2018-02-22T17:38:26.354Z,25.20
2018-02-22T17:40:55.317Z,25.20
2018-02-22T17:43:24.345Z,25.20
2018-02-22T17:45:52.660Z,25.60
2018-02-22T17:48:21.721Z,25.20
2018-02-22T17:50:49.935Z,25.20
2018-02-22T17:53:18.171Z,25.10
2018-02-22T17:55:46.490Z,25.10
2018-02-22T17:58:14.642Z,25.10
2018-02-22T18:00:42.803Z,25.10
2018-02-22T18:03:11.115Z,25.10
2018-02-22T18:05:39.302Z,25.10
2018-02-22T18:08:08.243Z,25.10
2018-02-22T18:10:36.434Z,25.10
2018-02-22T18:13:05.133Z,25.10
2018-02-22T18:15:34.175Z,25.10
2018-02-22T18:18:02.473Z,25.00
2018-02-22T18:20:30.665Z,25.00
2018-02-22T18:22:58.875Z,25.10
2018-02-22T18:25:28.247Z,25.10
2018-02-22T18:27:56.458Z,25.10
2018-02-22T18:30:24.714Z,25.10
2018-02-22T18:32:54.664Z,25.10
2018-02-22T18:35:22.903Z,25.00
2018-02-22T18:37:57.220Z,25.10
2018-02-22T18:40:31.710Z,25.10
2018-02-22T18:42:59.878Z,25.00
2018-02-22T18:45:28.168Z,25.10
2018-02-22T18:47:56.311Z,25.10
2018-02-22T18:50:24.507Z,25.00
2018-02-22T18:52:52.671Z,24.90
2018-02-22T18:55:20.859Z,24.90
2018-02-22T18:57:49.018Z,24.90
2018-02-22T19:00:17.193Z,24.90
2018-02-22T19:02:46.221Z,24.90
2018-02-22T19:05:15.142Z,24.80
2018-02-22T19:07:43.296Z,24.80
2018-02-22T19:10:11.426Z,24.80
2018-02-22T19:12:39.685Z,24.80
2018-02-22T19:15:07.883Z,24.70
2018-02-22T19:17:36.056Z,24.70
2018-02-22T19:20:04.213Z,24.60
2018-02-22T19:22:32.485Z,24.70
2018-02-22T19:25:00.787Z,24.70
2018-02-22T19:27:29.736Z,24.50
2018-02-22T19:29:57.908Z,24.40
2018-02-22T19:32:26.107Z,24.50
2018-02-22T19:34:54.287Z,24.40
2018-02-22T19:37:22.476Z,24.40
2018-02-22T19:39:50.749Z,24.40
2018-02-22T19:42:18.894Z,24.40
2018-02-22T19:44:47.062Z,24.40
2018-02-22T19:47:15.263Z,24.40
2018-02-22T19:49:44.231Z,24.90
2018-02-22T19:52:12.418Z,24.40
2018-02-22T19:54:40.626Z,24.40
2018-02-22T19:57:09.594Z,24.40
2018-02-22T19:59:37.793Z,24.40
2018-02-22T20:02:05.983Z,24.30
2018-02-22T20:04:34.193Z,24.30
2018-02-22T20:07:04.419Z,24.30
2018-02-22T20:09:32.780Z,24.30
2018-02-22T20:12:01.701Z,24.20
2018-02-22T20:14:30.030Z,24.20
2018-02-22T20:16:59.179Z,24.20
2018-02-22T20:19:28.312Z,24.30
2018-02-22T20:21:57.230Z,24.40
2018-02-22T20:24:25.466Z,24.30
2018-02-22T20:26:54.496Z,24.30
2018-02-22T20:29:24.504Z,24.20
2018-02-22T20:31:52.713Z,24.20
2018-02-22T20:34:20.888Z,24.20
2018-02-22T20:36:49.077Z,24.20
2018-02-22T20:39:19.770Z,24.10
2018-02-22T20:41:49.984Z,24.00
2018-02-22T20:44:20.603Z,24.00
2018-02-22T20:46:48.924Z,24.00
2018-02-22T20:49:17.141Z,23.90
2018-02-22T20:51:49.983Z,24.30
2018-02-22T20:54:19.001Z,24.00
2018-02-22T20:56:48.112Z,23.90
2018-02-22T20:59:20.498Z,23.90
2018-02-22T21:01:49.655Z,24.00
2018-02-22T21:04:18.944Z,24.00
2018-02-22T21:06:48.496Z,24.00
2018-02-22T21:09:16.738Z,24.00
2018-02-22T21:11:45.699Z,24.20
2018-02-22T21:14:14.822Z,24.20
2018-02-22T21:16:43.848Z,24.10
2018-02-22T21:19:13.186Z,24.10
2018-02-22T21:21:41.380Z,24.20
2018-02-22T21:24:10.350Z,24.80
2018-02-22T21:26:38.528Z,24.30
2018-02-22T21:29:06.689Z,24.30
2018-02-22T21:31:34.895Z,24.40
2018-02-22T21:34:03.798Z,24.50
2018-02-22T21:36:32.635Z,24.40
2018-02-22T21:39:00.930Z,24.50
2018-02-22T21:41:29.114Z,24.50
2018-02-22T21:43:58.362Z,24.60
2018-02-22T21:46:27.948Z,24.60
2018-02-22T21:48:56.203Z,24.60
2018-02-22T21:51:24.421Z,24.60
2018-02-22T21:53:54.723Z,24.70
2018-02-22T21:56:22.887Z,24.60
2018-02-22T21:58:52.617Z,24.60
2018-02-22T22:01:25.805Z,24.70
2018-02-22T22:03:56.292Z,24.30
2018-02-22T22:06:26.143Z,24.80
2018-02-22T22:08:56.747Z,24.70
2018-02-22T22:11:26.640Z,24.70
2018-02-22T22:13:55.975Z,24.80
2018-02-22T22:16:25.916Z,24.80
2018-02-22T22:18:56.085Z,24.70
2018-02-22T22:21:25.050Z,24.80
2018-02-22T22:23:53.739Z,24.80
2018-02-22T22:26:24.283Z,24.80
2018-02-22T22:28:53.317Z,24.80
2018-02-22T22:31:22.647Z,24.80
2018-02-22T22:33:50.860Z,24.80
2018-02-22T22:36:19.083Z,24.80
2018-02-22T22:38:47.442Z,24.80
2018-02-22T22:41:16.475Z,24.80
2018-02-22T22:43:46.565Z,24.90
2018-02-22T22:46:16.266Z,24.80
2018-02-22T22:48:45.161Z,24.80
2018-02-22T22:51:13.394Z,24.90
2018-02-22T22:53:42.563Z,24.90
2018-02-22T22:56:11.134Z,24.80
2018-02-22T22:58:40.913Z,25.00
2018-02-22T23:01:09.225Z,25.00
2018-02-22T23:03:38.546Z,25.00
2018-02-22T23:06:08.585Z,25.10
2018-02-22T23:08:37.596Z,25.00
2018-02-22T23:11:06.667Z,25.00
2018-02-22T23:13:34.863Z,25.00
2018-02-22T23:16:04.370Z,25.00
2018-02-22T23:18:34.276Z,25.00
2018-02-22T23:21:02.465Z,25.10
2018-02-22T23:23:30.617Z,25.10
2018-02-22T23:25:58.802Z,25.10
2018-02-22T23:28:26.989Z,25.20
2018-02-22T23:30:55.140Z,25.10
2018-02-22T23:33:23.414Z,25.10
2018-02-22T23:35:51.569Z,25.10
2018-02-22T23:38:19.745Z,25.10
2018-02-22T23:40:49.621Z,25.00
2018-02-22T23:43:17.806Z,25.00
2018-02-22T23:45:45.970Z,25.00
2018-02-22T23:48:14.117Z,24.90
2018-02-22T23:50:42.275Z,25.10
2018-02-22T23:53:10.418Z,25.00
2018-02-22T23:55:39.328Z,25.10
2018-02-22T23:58:07.493Z,25.10
